createdAt,value
2018-05-02T00:01:59.367Z,98404
2018-05-02T00:04:26.990Z,98414
2018-05-02T00:06:54.573Z,98411
2018-05-02T00:09:22.211Z,98410
2018-05-02T00:11:50.579Z,98413
2018-05-02T00:14:18.934Z,98414
2018-05-02T00:16:46.523Z,98407
2018-05-02T00:19:14.910Z,98410
2018-05-02T00:21:43.293Z,98420
2018-05-02T00:24:11.670Z,98411
2018-05-02T00:26:39.262Z,98407
2018-05-02T00:29:06.896Z,98408
2018-05-02T00:31:35.247Z,98406
2018-05-02T00:34:02.925Z,98411
2018-05-02T00:36:30.506Z,98398
2018-05-02T00:38:58.093Z,98389
2018-05-02T00:41:26.605Z,98400
2018-05-02T00:43:54.186Z,98399
2018-05-02T00:46:21.766Z,98398
2018-05-02T00:49:02.187Z,98400
2018-05-02T00:51:29.791Z,98401
2018-05-02T00:53:58.171Z,98398
2018-05-02T00:56:26.307Z,98395
2018-05-02T00:58:55.444Z,98394
2018-05-02T01:01:23.038Z,98398
2018-05-02T01:03:50.842Z,98391
2018-05-02T01:06:18.528Z,98390
2018-05-02T01:08:47.973Z,98383
2018-05-02T01:11:16.681Z,98385
2018-05-02T01:13:44.707Z,98384
2018-05-02T01:16:12.434Z,98387
2018-05-02T01:18:40.769Z,98387
2018-05-02T01:21:09.001Z,98397
2018-05-02T01:23:37.607Z,98386
2018-05-02T01:26:05.274Z,98384
2018-05-02T01:28:32.934Z,98384
2018-05-02T01:31:00.604Z,98391
2018-05-02T01:33:28.259Z,98388
2018-05-02T01:35:55.845Z,98382
2018-05-02T01:38:23.431Z,98379
2018-05-02T01:40:51.028Z,98382
2018-05-02T01:43:19.434Z,98388
2018-05-02T01:45:47.082Z,98385
2018-05-02T01:48:14.747Z,98384
2018-05-02T01:50:43.128Z,98368
2018-05-02T01:53:10.719Z,98376
2018-05-02T01:55:38.345Z,98366
2018-05-02T01:58:06.731Z,98371
2018-05-02T02:00:35.083Z,98379
2018-05-02T02:03:02.774Z,98375
2018-05-02T02:05:30.435Z,98365
2018-05-02T02:07:58.027Z,98369
2018-05-02T02:10:26.566Z,98366
2018-05-02T02:12:55.364Z,98355
2018-05-02T02:15:23.727Z,98374
2018-05-02T02:17:51.415Z,98364
2018-05-02T02:20:19.795Z,98360
2018-05-02T02:22:48.155Z,98366
2018-05-02T02:25:15.746Z,98369
2018-05-02T02:27:43.329Z,98368
2018-05-02T02:30:10.968Z,98363
2018-05-02T02:32:38.551Z,98371
2018-05-02T02:35:06.152Z,98378
2018-05-02T02:37:33.849Z,98369
2018-05-02T02:40:01.512Z,98371
2018-05-02T02:42:29.170Z,98370
2018-05-02T02:44:57.554Z,98373
2018-05-02T02:47:26.426Z,98365
2018-05-02T02:49:55.442Z,98369
2018-05-02T02:52:23.099Z,98370
2018-05-02T02:54:50.703Z,98372
2018-05-02T02:57:18.336Z,98369
2018-05-02T02:59:45.927Z,98370
2018-05-02T03:02:13.523Z,98360
2018-05-02T03:04:41.213Z,98355
2018-05-02T03:07:09.588Z,98351
2018-05-02T03:09:37.979Z,98355
2018-05-02T03:12:05.567Z,98350
2018-05-02T03:14:33.155Z,98353
2018-05-02T03:17:00.748Z,98348
2018-05-02T03:19:29.139Z,98347
2018-05-02T03:21:58.082Z,98341
2018-05-02T03:24:26.595Z,98349
2018-05-02T03:26:55.352Z,98340
2018-05-02T03:29:23.076Z,98342
2018-05-02T03:31:50.662Z,98344
2018-05-02T03:34:18.273Z,98342
2018-05-02T03:36:46.675Z,98335
2018-05-02T03:39:14.268Z,98334
2018-05-02T03:41:41.861Z,98335
2018-05-02T03:44:09.459Z,98343
2018-05-02T03:46:37.122Z,98344
2018-05-02T03:49:04.779Z,98339
2018-05-02T03:51:33.162Z,98343
2018-05-02T03:54:00.822Z,98331
2018-05-02T03:56:29.170Z,98329
2018-05-02T03:58:57.070Z,98348
2018-05-02T04:01:37.328Z,98338
2018-05-02T04:04:17.589Z,98328
2018-05-02T04:06:58.056Z,98333
2018-05-02T04:09:25.689Z,98324
2018-05-02T04:11:53.282Z,98326
2018-05-02T04:14:20.862Z,98329
2018-05-02T04:16:48.454Z,98332
2018-05-02T04:19:16.060Z,98328
2018-05-02T04:21:43.722Z,98337
2018-05-02T04:24:12.077Z,98335
2018-05-02T04:26:39.678Z,98338
2018-05-02T04:29:07.324Z,98334
2018-05-02T04:31:35.680Z,98346
2018-05-02T04:34:03.335Z,98342
2018-05-02T04:36:31.036Z,98343
2018-05-02T04:38:58.698Z,98340
2018-05-02T04:41:27.446Z,98345
2018-05-02T04:43:56.255Z,98345
2018-05-02T04:46:23.945Z,98344
2018-05-02T04:48:51.541Z,98341
2018-05-02T04:51:19.271Z,98335
2018-05-02T04:53:46.933Z,98332
2018-05-02T04:56:14.713Z,98340
2018-05-02T04:58:42.302Z,98332
2018-05-02T05:01:10.843Z,98333
2018-05-02T05:03:38.507Z,98330
2018-05-02T05:06:06.119Z,98332
2018-05-02T05:08:33.716Z,98330
2018-05-02T05:11:02.075Z,98333
2018-05-02T05:13:29.771Z,98333
2018-05-02T05:15:57.620Z,98329
2018-05-02T05:18:25.974Z,98331
2018-05-02T05:20:53.579Z,98335
2018-05-02T05:23:21.963Z,98333
2018-05-02T05:25:49.626Z,98332
2018-05-02T05:28:17.253Z,98320
2018-05-02T05:30:44.817Z,98323
2018-05-02T05:33:12.507Z,98316
2018-05-02T05:35:40.867Z,98318
2018-05-02T05:38:08.454Z,98329
2018-05-02T05:40:36.044Z,98321
2018-05-02T05:43:03.648Z,98326
2018-05-02T05:45:31.344Z,98325
2018-05-02T05:47:59.010Z,98322
2018-05-02T05:50:26.667Z,98323
2018-05-02T05:52:54.326Z,98324
2018-05-02T05:55:22.707Z,98322
2018-05-02T05:57:50.365Z,98313
2018-05-02T06:00:18.728Z,98309
2018-05-02T06:02:46.414Z,98308
2018-05-02T06:05:14.106Z,98317
2018-05-02T06:07:41.743Z,98311
2018-05-02T06:10:09.338Z,98318
2018-05-02T06:12:36.925Z,98314
2018-05-02T06:15:04.519Z,98320
2018-05-02T06:17:32.882Z,98319
2018-05-02T06:20:00.474Z,98326
2018-05-02T06:22:28.066Z,98330
2018-05-02T06:24:56.581Z,98321
2018-05-02T06:27:24.378Z,98326
2018-05-02T06:29:51.967Z,98322
2018-05-02T06:32:19.578Z,98318
2018-05-02T06:34:47.268Z,98326
2018-05-02T06:37:14.866Z,98325
2018-05-02T06:39:42.455Z,98327
2018-05-02T06:42:10.047Z,98324
2018-05-02T06:44:37.714Z,98323
2018-05-02T06:47:05.307Z,98315
2018-05-02T06:49:32.905Z,98328
2018-05-02T06:52:01.267Z,98324
2018-05-02T06:54:28.971Z,98318
2018-05-02T06:56:57.360Z,98321
2018-05-02T06:59:25.370Z,98315
2018-05-02T07:01:52.995Z,98321
2018-05-02T07:04:20.579Z,98320
2018-05-02T07:06:48.219Z,98307
2018-05-02T07:09:15.883Z,98311
2018-05-02T07:11:43.545Z,98320
2018-05-02T07:14:11.150Z,98302
2018-05-02T07:16:38.746Z,98304
2018-05-02T07:19:07.105Z,98297
2018-05-02T07:21:36.243Z,98295
2018-05-02T07:24:04.675Z,98290
2018-05-02T07:26:32.285Z,98299
2018-05-02T07:28:59.878Z,98288
2018-05-02T07:31:27.467Z,98286
2018-05-02T07:33:55.058Z,98281
2018-05-02T07:36:23.426Z,98298
2018-05-02T07:38:51.119Z,98288
2018-05-02T07:41:18.772Z,98286
2018-05-02T07:43:47.158Z,98281
2018-05-02T07:46:14.779Z,98271
2018-05-02T07:48:42.408Z,98281
2018-05-02T07:51:10.042Z,98280
2018-05-02T07:53:37.627Z,98278
2018-05-02T07:56:05.214Z,98273
2018-05-02T07:58:32.830Z,98269
2018-05-02T08:01:00.417Z,98284
2018-05-02T08:03:28.046Z,98274
2018-05-02T08:05:57.497Z,98269
2018-05-02T08:08:25.706Z,98270
2018-05-02T08:10:53.335Z,98271
2018-05-02T08:13:20.933Z,98261
2018-05-02T08:15:48.519Z,98264
2018-05-02T08:18:16.194Z,98252
2018-05-02T08:20:43.784Z,98266
2018-05-02T08:23:11.371Z,98259
2018-05-02T08:25:38.966Z,98248
2018-05-02T08:28:06.621Z,98248
2018-05-02T08:30:34.973Z,98247
2018-05-02T08:33:02.565Z,98246
2018-05-02T08:35:30.919Z,98238
2018-05-02T08:37:58.505Z,98231
2018-05-02T08:40:27.627Z,98230
2018-05-02T08:42:56.482Z,98234
2018-05-02T08:45:25.394Z,98231
2018-05-02T08:47:53.051Z,98224
2018-05-02T08:50:21.405Z,98227
2018-05-02T08:52:49.011Z,98227
2018-05-02T08:55:16.596Z,98225
2018-05-02T08:57:44.209Z,98232
2018-05-02T09:00:12.558Z,98231
2018-05-02T09:02:40.155Z,98218
2018-05-02T09:05:08.513Z,98209
2018-05-02T09:07:36.100Z,98211
2018-05-02T09:10:03.690Z,98209
2018-05-02T09:12:31.279Z,98208
2018-05-02T09:14:58.890Z,98207
2018-05-02T09:17:27.275Z,98193
2018-05-02T09:19:55.440Z,98189
2018-05-02T09:22:23.103Z,98180
2018-05-02T09:24:50.762Z,98188
2018-05-02T09:27:19.117Z,98182
2018-05-02T09:29:46.713Z,98191
2018-05-02T09:32:14.293Z,98174
2018-05-02T09:34:41.922Z,98177
2018-05-02T09:37:10.291Z,98170
2018-05-02T09:39:38.692Z,98175
2018-05-02T09:42:06.363Z,98165
2018-05-02T09:44:34.017Z,98171
2018-05-02T09:47:01.610Z,98180
2018-05-02T09:49:29.218Z,98156
2018-05-02T09:51:57.677Z,98150
2018-05-02T09:54:26.288Z,98148
2018-05-02T09:56:55.405Z,98147
2018-05-02T09:59:23.065Z,98140
2018-05-02T10:01:51.442Z,98135
2018-05-02T10:04:19.803Z,98130
2018-05-02T10:06:48.224Z,98145
2018-05-02T10:09:16.550Z,98141
2018-05-02T10:11:44.247Z,98127
2018-05-02T10:14:12.609Z,98109
2018-05-02T10:16:41.002Z,98111
2018-05-02T10:19:14.324Z,98114
2018-05-02T10:21:41.931Z,98113
2018-05-02T10:24:10.295Z,98123
2018-05-02T10:26:37.919Z,98107
2018-05-02T10:29:05.519Z,98101
2018-05-02T10:31:33.115Z,98083
2018-05-02T10:34:00.694Z,98084
2018-05-02T10:36:28.294Z,98087
2018-05-02T10:38:55.877Z,98083
2018-05-02T10:41:24.211Z,98083
2018-05-02T10:43:51.819Z,98073
2018-05-02T10:46:19.404Z,98075
2018-05-02T10:48:46.983Z,98074
2018-05-02T10:51:14.595Z,98073
2018-05-02T10:53:42.957Z,98080
2018-05-02T10:56:10.548Z,98070
2018-05-02T10:58:38.134Z,98067
2018-05-02T11:01:05.711Z,98067
2018-05-02T11:03:33.311Z,98069
2018-05-02T11:06:01.687Z,98076
2018-05-02T11:08:30.036Z,98077
2018-05-02T11:10:57.625Z,98066
2018-05-02T11:13:25.967Z,98059
2018-05-02T11:15:53.575Z,98051
2018-05-02T11:18:21.217Z,98054
2018-05-02T11:20:49.562Z,98048
2018-05-02T11:23:17.153Z,98046
2018-05-02T11:25:44.733Z,98046
2018-05-02T11:28:12.322Z,98040
2018-05-02T11:30:39.883Z,98036
2018-05-02T11:33:07.471Z,98032
2018-05-02T11:35:35.057Z,98037
2018-05-02T11:38:03.415Z,98044
2018-05-02T11:40:31.002Z,98028
2018-05-02T11:42:58.579Z,98017
2018-05-02T11:45:26.200Z,98021
2018-05-02T11:47:53.787Z,98029
2018-05-02T11:50:21.391Z,98028
2018-05-02T11:52:48.964Z,98018
2018-05-02T11:55:16.566Z,98033
2018-05-02T11:57:44.193Z,98010
2018-05-02T12:00:11.760Z,98009
2018-05-02T12:02:40.134Z,98007
2018-05-02T12:05:07.688Z,98012
2018-05-02T12:07:35.308Z,98015
2018-05-02T12:10:02.905Z,98010
2018-05-02T12:12:30.485Z,98009
2018-05-02T12:14:58.847Z,98006
2018-05-02T12:17:26.439Z,98014
2018-05-02T12:19:54.043Z,98001
2018-05-02T12:22:21.639Z,98003
2018-05-02T12:24:49.990Z,97989
2018-05-02T12:27:17.562Z,97989
2018-05-02T12:29:45.142Z,98006
2018-05-02T12:32:12.786Z,97996
2018-05-02T12:34:40.354Z,97994
2018-05-02T12:37:08.715Z,97995
2018-05-02T12:39:36.350Z,97987
2018-05-02T12:42:03.957Z,97987
2018-05-02T12:44:32.437Z,97990
2018-05-02T12:47:00.853Z,97990
2018-05-02T12:49:28.457Z,97980
2018-05-02T12:51:57.051Z,97975
2018-05-02T12:54:26.601Z,97976
2018-05-02T12:56:54.965Z,97977
2018-05-02T12:59:23.343Z,97972
2018-05-02T13:01:52.951Z,97967
2018-05-02T13:04:20.609Z,97974
2018-05-02T13:06:48.157Z,97970
2018-05-02T13:09:15.784Z,97975
2018-05-02T13:11:43.388Z,97969
2018-05-02T13:14:10.991Z,97975
2018-05-02T13:16:38.592Z,97967
2018-05-02T13:19:06.968Z,97964
2018-05-02T13:21:35.338Z,97967
2018-05-02T13:24:05.699Z,97959
2018-05-02T13:26:33.283Z,97955
2018-05-02T13:29:01.400Z,97945
2018-05-02T13:31:29.770Z,97940
2018-05-02T13:33:58.163Z,97941
2018-05-02T13:36:25.772Z,97941
2018-05-02T13:38:53.378Z,97940
2018-05-02T13:41:21.787Z,97933
2018-05-02T13:43:49.448Z,97935
2018-05-02T13:46:17.913Z,97928
2018-05-02T13:48:45.611Z,97919
2018-05-02T13:51:13.224Z,97918
2018-05-02T13:53:41.608Z,97915
2018-05-02T13:56:09.202Z,97912
2018-05-02T13:58:36.820Z,97912
2018-05-02T14:01:04.512Z,97908
2018-05-02T14:03:32.126Z,97908
2018-05-02T14:05:59.763Z,97904
2018-05-02T14:08:27.441Z,97913
2018-05-02T14:10:55.025Z,97900
2018-05-02T14:13:23.402Z,97903
2018-05-02T14:15:51.029Z,97895
2018-05-02T14:18:18.771Z,97896
2018-05-02T14:20:46.395Z,97881
2018-05-02T14:23:14.051Z,97878
2018-05-02T14:25:41.658Z,97884
2018-05-02T14:28:09.272Z,97887
2018-05-02T14:30:36.892Z,97897
2018-05-02T14:33:04.490Z,97887
2018-05-02T14:35:39.986Z,97882
2018-05-02T14:38:07.581Z,97884
2018-05-02T14:40:35.950Z,97882
2018-05-02T14:43:03.665Z,97875
2018-05-02T14:45:31.471Z,97882
2018-05-02T14:48:01.689Z,97880
2018-05-02T14:50:30.742Z,97885
2018-05-02T14:52:58.411Z,97881
2018-05-02T14:55:26.030Z,97870
2018-05-02T14:57:56.529Z,97880
2018-05-02T15:00:24.126Z,97868
2018-05-02T15:02:51.745Z,97870
2018-05-02T15:05:19.328Z,97877
2018-05-02T15:07:46.929Z,97879
2018-05-02T15:10:14.534Z,97872
2018-05-02T15:12:44.916Z,97877
2018-05-02T15:15:12.516Z,97880
2018-05-02T15:17:40.128Z,97885
2018-05-02T15:20:07.769Z,97890
2018-05-02T15:22:35.412Z,97879
2018-05-02T15:25:04.514Z,97882
2018-05-02T15:27:32.126Z,97880
2018-05-02T15:29:59.720Z,97882
2018-05-02T15:32:27.601Z,97896
2018-05-02T15:34:55.403Z,97896
2018-05-02T15:37:23.929Z,97893
2018-05-02T15:39:53.277Z,97891
2018-05-02T15:42:20.873Z,97873
2018-05-02T15:44:48.497Z,97882
2018-05-02T15:47:16.103Z,97880
2018-05-02T15:49:43.816Z,97880
2018-05-02T15:52:11.438Z,97875
2018-05-02T15:54:49.279Z,97880
2018-05-02T15:57:19.455Z,97868
2018-05-02T15:59:47.204Z,97867
2018-05-02T16:02:14.826Z,97877
2018-05-02T16:04:42.454Z,97855
2018-05-02T16:07:10.120Z,97864
2018-05-02T16:09:38.541Z,97865
2018-05-02T16:12:06.232Z,97857
2018-05-02T16:14:33.909Z,97863
2018-05-02T16:17:02.334Z,97857
2018-05-02T16:19:32.156Z,97867
2018-05-02T16:21:59.936Z,97870
2018-05-02T16:24:33.956Z,97867
2018-05-02T16:27:06.999Z,97861
2018-05-02T16:29:34.640Z,97857
2018-05-02T16:32:02.310Z,97861
2018-05-02T16:34:39.662Z,97864
2018-05-02T16:37:07.348Z,97868
2018-05-02T16:39:37.012Z,97860
2018-05-02T16:42:04.693Z,97863
2018-05-02T16:44:33.088Z,97866
2018-05-02T16:47:01.542Z,97860
2018-05-02T16:49:33.356Z,97872
2018-05-02T16:52:03.129Z,97867
2018-05-02T16:54:31.787Z,97873
2018-05-02T16:56:59.444Z,97867
2018-05-02T16:59:27.094Z,97873
2018-05-02T17:01:54.721Z,97877
2018-05-02T17:04:22.466Z,97877
2018-05-02T17:06:58.003Z,97889
2018-05-02T17:09:27.748Z,97888
2018-05-02T17:11:59.549Z,97881
2018-05-02T17:14:27.144Z,97879
2018-05-02T17:17:00.173Z,97880
2018-05-02T17:19:27.775Z,97880
2018-05-02T17:21:57.045Z,97874
2018-05-02T17:24:29.405Z,97886
2018-05-02T17:27:05.893Z,97888
2018-05-02T17:29:33.500Z,97892
2018-05-02T17:32:01.876Z,97895
2018-05-02T17:34:31.460Z,97895
2018-05-02T17:37:01.018Z,97888
2018-05-02T17:39:29.423Z,97892
2018-05-02T17:42:03.584Z,97889
2018-05-02T17:44:31.984Z,97891
2018-05-02T17:46:59.571Z,97889
2018-05-02T17:49:27.182Z,97885
2018-05-02T17:51:54.789Z,97894
2018-05-02T17:54:22.455Z,97896
2018-05-02T17:56:50.079Z,97882
2018-05-02T17:59:19.613Z,97877
2018-05-02T18:01:47.243Z,97880
2018-05-02T18:04:14.887Z,97876
2018-05-02T18:06:46.516Z,97876
2018-05-02T18:09:14.120Z,97876
2018-05-02T18:11:41.729Z,97886
2018-05-02T18:14:09.325Z,97892
2018-05-02T18:16:36.951Z,97884
2018-05-02T18:19:04.559Z,97888
2018-05-02T18:21:32.175Z,97898
2018-05-02T18:24:00.031Z,97892
2018-05-02T18:26:27.638Z,97903
2018-05-02T18:28:55.252Z,97899
2018-05-02T18:31:22.859Z,97898
2018-05-02T18:33:50.495Z,97902
2018-05-02T18:36:20.835Z,97902
2018-05-02T18:41:20.246Z,97899
2018-05-02T18:43:48.628Z,97895
2018-05-02T18:46:17.022Z,97908
2018-05-02T18:48:44.612Z,97901
2018-05-02T18:51:12.230Z,97895
2018-05-02T18:53:39.827Z,97907
2018-05-02T18:56:07.439Z,97918
2018-05-02T18:58:35.141Z,97898
2018-05-02T19:01:03.484Z,97907
2018-05-02T19:03:31.914Z,97910
2018-05-02T19:05:59.518Z,97908
2018-05-02T19:08:27.894Z,97907
2018-05-02T19:10:56.397Z,97912
2018-05-02T19:13:28.705Z,97914
2018-05-02T19:15:56.307Z,97924
2018-05-02T19:18:30.429Z,97911
2018-05-02T19:20:58.882Z,97909
2018-05-02T19:23:26.476Z,97915
2018-05-02T19:26:00.249Z,97913
2018-05-02T19:28:27.957Z,97914
2018-05-02T19:31:01.150Z,97925
2018-05-02T19:33:34.569Z,97932
2018-05-02T19:36:02.157Z,97939
2018-05-02T19:38:29.747Z,97951
2018-05-02T19:41:02.956Z,97950
2018-05-02T19:43:40.829Z,97951
2018-05-02T19:46:09.208Z,97938
2018-05-02T19:48:37.584Z,97937
2018-05-02T19:51:11.734Z,97939
2018-05-02T19:53:39.276Z,97930
2018-05-02T19:56:07.887Z,97936
2018-05-02T19:58:35.691Z,97927
2018-05-02T20:01:15.322Z,97944
2018-05-02T20:03:50.453Z,97953
2018-05-02T20:06:18.064Z,97953
2018-05-02T20:08:51.445Z,97948
2018-05-02T20:11:24.774Z,97948
2018-05-02T20:13:58.012Z,97962
2018-05-02T20:16:26.394Z,97968
2018-05-02T20:18:54.841Z,97962
2018-05-02T20:21:22.451Z,97960
2018-05-02T20:23:50.052Z,97979
2018-05-02T20:26:17.663Z,97978
2018-05-02T20:28:45.252Z,97987
2018-05-02T20:31:13.608Z,97987
2018-05-02T20:33:41.231Z,97981
2018-05-02T20:36:08.831Z,97992
2018-05-02T20:38:42.046Z,97998
2018-05-02T20:41:09.628Z,97997
2018-05-02T20:43:37.265Z,97997
2018-05-02T20:46:06.837Z,97990
2018-05-02T20:48:35.195Z,98004
2018-05-02T20:51:02.784Z,97989
2018-05-02T20:53:30.371Z,98003
2018-05-02T20:55:57.968Z,97994
2018-05-02T20:58:25.556Z,98000
2018-05-02T21:00:53.911Z,97987
2018-05-02T21:03:21.535Z,98002
2018-05-02T21:05:49.131Z,97991
2018-05-02T21:08:17.513Z,97984
2018-05-02T21:10:45.097Z,97981
2018-05-02T21:13:12.677Z,97980
2018-05-02T21:15:40.272Z,97977
2018-05-02T21:18:07.874Z,97976
2018-05-02T21:20:36.238Z,97973
2018-05-02T21:23:03.835Z,97958
2018-05-02T21:25:31.444Z,97959
2018-05-02T21:27:59.049Z,97954
2018-05-02T21:30:26.650Z,97958
2018-05-02T21:32:54.237Z,97946
2018-05-02T21:35:22.600Z,97945
2018-05-02T21:37:50.189Z,97952
2018-05-02T21:40:22.143Z,97952
2018-05-02T21:42:50.498Z,97953
2018-05-02T21:45:18.094Z,97943
2018-05-02T21:47:45.713Z,97942
2018-05-02T21:50:13.304Z,97944
2018-05-02T21:52:41.666Z,97940
2018-05-02T21:55:10.040Z,97929
2018-05-02T21:57:37.628Z,97928
2018-05-02T22:00:05.218Z,97935
2018-05-02T22:02:32.799Z,97937
2018-05-02T22:05:00.382Z,97933
2018-05-02T22:07:28.026Z,97936
2018-05-02T22:09:55.546Z,97940
2018-05-02T22:12:23.136Z,97932
2018-05-02T22:14:50.722Z,97940
2018-05-02T22:17:19.070Z,97940
2018-05-02T22:19:48.575Z,97954
2018-05-02T22:22:16.153Z,97953
2018-05-02T22:24:43.723Z,97956
2018-05-02T22:27:12.070Z,97961
2018-05-02T22:29:39.642Z,97959
2018-05-02T22:32:07.233Z,97961
2018-05-02T22:34:34.811Z,97964
2018-05-02T22:37:02.411Z,97965
2018-05-02T22:39:30.002Z,97974
2018-05-02T22:41:58.379Z,97979
2018-05-02T22:44:26.747Z,97981
2018-05-02T22:46:55.113Z,97978
2018-05-02T22:49:22.713Z,97993
2018-05-02T22:51:50.330Z,97979
2018-05-02T22:54:17.927Z,97985
2018-05-02T22:56:45.517Z,97982
2018-05-02T22:59:13.107Z,97980
2018-05-02T23:01:40.696Z,97984
2018-05-02T23:04:09.043Z,97988
2018-05-02T23:06:36.624Z,97980
2018-05-02T23:09:04.970Z,97992
2018-05-02T23:11:32.556Z,97988
2018-05-02T23:14:00.156Z,98000
2018-05-02T23:16:27.749Z,97992
2018-05-02T23:18:55.337Z,97996
2018-05-02T23:21:35.672Z,98003
2018-05-02T23:24:03.279Z,97996
2018-05-02T23:26:31.626Z,97992
2018-05-02T23:28:59.211Z,97996
2018-05-02T23:31:27.558Z,97993
2018-05-02T23:33:55.135Z,97984
2018-05-02T23:36:23.485Z,97986
2018-05-02T23:38:51.072Z,97979
2018-05-02T23:41:19.478Z,97983
2018-05-02T23:43:47.023Z,97986
2018-05-02T23:46:15.364Z,97981
2018-05-02T23:48:42.935Z,97980
2018-05-02T23:51:10.515Z,97980
2018-05-02T23:53:38.859Z,97984
2018-05-02T23:56:06.435Z,97976
2018-05-02T23:58:34.018Z,97977
